EIN7855 EGKK-EIDW
Flight info
| Callsign | EIN7855 |
|---|---|
| Flight time | N/A |
| Altitude | 22000 |
| Route | LAM L10 BPK/N0458F380 L10 WAL M146 AGLIL UL28 PENIL M144 BAGSO BAGSO4L |
| Aircraft | A20N/M-SDE2E3FGHIRWXY/LB1 |
Departure
| Time | 2026-04-15 20:30 |
|---|---|
| Airport | London Gatwick Airport (EGKK) |
Arrival
| Time | N/A |
|---|---|
| Airport | Dublin Airport (EIDW) |
| Time | Latitude | Longitude | Altitude | Speed | Heading |
|---|---|---|---|---|---|
| 2026-04-15 20:00 | 51.15367 | -0.16346 | 208 ft | 0 kts | 356° |
| 2026-04-15 20:19 | 51.15364 | -0.16346 | 208 ft | 3 kts | 356° |
| 2026-04-15 20:19 | 51.15345 | -0.16344 | 208 ft | 3 kts | 356° |
| 2026-04-15 20:19 | 51.15327 | -0.16341 | 208 ft | 3 kts | 321° |
| 2026-04-15 20:19 | 51.15319 | -0.16322 | 218 ft | 0 kts | 257° |
| 2026-04-15 20:23 | 51.15319 | -0.16323 | 218 ft | 2 kts | 257° |
| 2026-04-15 20:23 | 51.15312 | -0.16375 | 208 ft | 0 kts | 258° |
| 2026-04-15 20:24 | 51.15309 | -0.16401 | 210 ft | 6 kts | 258° |
| 2026-04-15 20:24 | 51.15294 | -0.16540 | 208 ft | 7 kts | 261° |
| 2026-04-15 20:24 | 51.15285 | -0.16614 | 214 ft | 7 kts | 258° |
| 2026-04-15 20:25 | 51.15270 | -0.16648 | 219 ft | 0 kts | 212° |
| 2026-04-15 20:28 | 51.15246 | -0.16654 | 209 ft | 7 kts | 176° |
| 2026-04-15 20:28 | 51.15200 | -0.16637 | 212 ft | 7 kts | 170° |
| 2026-04-15 20:28 | 51.15155 | -0.16649 | 216 ft | 7 kts | 212° |
| 2026-04-15 20:28 | 51.15133 | -0.16705 | 210 ft | 6 kts | 263° |
| 2026-04-15 20:29 | 51.15126 | -0.16770 | 215 ft | 6 kts | 258° |
| 2026-04-15 20:29 | 51.15124 | -0.16787 | 215 ft | 0 kts | 258° |
| 2026-04-15 20:29 | 51.15123 | -0.16788 | 215 ft | 0 kts | 258° |
| 2026-04-15 20:29 | 51.15076 | -0.17125 | 215 ft | 71 kts | 257° |
| 2026-04-15 20:30 | 51.14906 | -0.18336 | 212 ft | 152 kts | 257° |
| 2026-04-15 20:30 | 51.14671 | -0.20150 | 747 ft | 168 kts | 257° |
| 2026-04-15 20:30 | 51.14479 | -0.21887 | 1890 ft | 157 kts | 255° |
| 2026-04-15 20:30 | 51.14218 | -0.23662 | 2510 ft | 173 kts | 254° |
| 2026-04-15 20:31 | 51.13920 | -0.25587 | 3144 ft | 184 kts | 254° |
| 2026-04-15 20:31 | 51.13711 | -0.27678 | 3682 ft | 199 kts | 266° |
| 2026-04-15 20:31 | 51.14009 | -0.29872 | 3950 ft | 210 kts | 290° |
| 2026-04-15 20:31 | 51.14993 | -0.31654 | 3999 ft | 224 kts | 320° |
| 2026-04-15 20:32 | 51.16520 | -0.32416 | 3998 ft | 242 kts | 353° |
| 2026-04-15 20:32 | 51.18169 | -0.31688 | 4000 ft | 255 kts | 31° |
| 2026-04-15 20:32 | 51.19304 | -0.29540 | 4002 ft | 258 kts | 68° |
| 2026-04-15 20:32 | 51.19809 | -0.26791 | 4004 ft | 260 kts | 80° |
| 2026-04-15 20:33 | 51.20164 | -0.23951 | 4003 ft | 262 kts | 81° |
| 2026-04-15 20:33 | 51.20505 | -0.21094 | 4107 ft | 264 kts | 82° |
| 2026-04-15 20:33 | 51.20858 | -0.18132 | 4589 ft | 281 kts | 82° |
| 2026-04-15 20:33 | 51.21239 | -0.15008 | 5406 ft | 291 kts | 81° |
| 2026-04-15 20:34 | 51.21635 | -0.11823 | 6372 ft | 295 kts | 81° |
| 2026-04-15 20:34 | 51.22039 | -0.08592 | 7313 ft | 299 kts | 81° |
| 2026-04-15 20:34 | 51.22451 | -0.05304 | 8212 ft | 305 kts | 80° |
| 2026-04-15 20:34 | 51.22871 | -0.01946 | 9136 ft | 311 kts | 80° |
| 2026-04-15 20:35 | 51.23298 | 0.01465 | 9895 ft | 315 kts | 80° |
| 2026-04-15 20:35 | 51.23736 | 0.04983 | 10424 ft | 334 kts | 80° |
| 2026-04-15 20:35 | 51.24204 | 0.08748 | 10759 ft | 358 kts | 80° |
| 2026-04-15 20:35 | 51.24703 | 0.12768 | 11132 ft | 378 kts | 80° |
| 2026-04-15 20:36 | 51.25224 | 0.16956 | 11777 ft | 389 kts | 80° |
| 2026-04-15 20:36 | 51.25739 | 0.21240 | 12537 ft | 396 kts | 83° |
| 2026-04-15 20:36 | 51.25958 | 0.25626 | 13336 ft | 399 kts | 95° |
| 2026-04-15 20:37 | 51.24241 | 0.33298 | 14745 ft | 388 kts | 135° |
| 2026-04-15 20:37 | 51.22224 | 0.36050 | 15557 ft | 379 kts | 155° |
| 2026-04-15 20:37 | 51.19949 | 0.38187 | 16354 ft | 386 kts | 150° |
| 2026-04-15 20:37 | 51.18027 | 0.41277 | 17133 ft | 403 kts | 130° |
| 2026-04-15 20:38 | 51.16789 | 0.45351 | 17890 ft | 418 kts | 110° |
| 2026-04-15 20:38 | 51.16403 | 0.49992 | 18505 ft | 430 kts | 91° |
| 2026-04-15 20:38 | 51.16785 | 0.54759 | 19135 ft | 437 kts | 82° |
| 2026-04-15 20:38 | 51.17322 | 0.59555 | 19740 ft | 444 kts | 75° |
| 2026-04-15 20:39 | 51.18646 | 0.64010 | 20390 ft | 448 kts | 53° |
| 2026-04-15 20:39 | 51.20790 | 0.67571 | 21060 ft | 447 kts | 33° |
| 2026-04-15 20:39 | 51.23504 | 0.69891 | 21610 ft | 440 kts | 14° |
| 2026-04-15 20:39 | 51.26463 | 0.70769 | 21804 ft | 427 kts | 355° |
| 2026-04-15 20:40 | 51.29347 | 0.70109 | 21834 ft | 413 kts | 335° |
| 2026-04-15 20:40 | 51.31829 | 0.68018 | 21846 ft | 398 kts | 315° |
| 2026-04-15 20:40 | 51.33750 | 0.64915 | 22107 ft | 391 kts | 304° |
| 2026-04-15 20:40 | 51.35443 | 0.61512 | 22081 ft | 391 kts | 302° |
| 2026-04-15 20:41 | 51.37132 | 0.58087 | 22078 ft | 393 kts | 304° |
| 2026-04-15 20:41 | 51.38907 | 0.54743 | 22077 ft | 395 kts | 306° |
| 2026-04-15 20:41 | 51.40757 | 0.51547 | 22078 ft | 397 kts | 308° |
| 2026-04-15 20:41 | 51.42701 | 0.48407 | 22078 ft | 398 kts | 310° |
| 2026-04-15 20:42 | 51.44694 | 0.45328 | 22078 ft | 397 kts | 311° |
| 2026-04-15 20:42 | 51.46701 | 0.42293 | 22074 ft | 397 kts | 311° |
| 2026-04-15 20:42 | 51.48718 | 0.39264 | 22073 ft | 397 kts | 311° |
| 2026-04-15 20:42 | 51.50735 | 0.36233 | 22074 ft | 397 kts | 311° |
| 2026-04-15 20:43 | 51.52742 | 0.33202 | 22069 ft | 397 kts | 311° |
| 2026-04-15 20:43 | 51.54751 | 0.30155 | 22072 ft | 397 kts | 311° |
| 2026-04-15 20:43 | 51.56751 | 0.27108 | 22073 ft | 397 kts | 311° |
| 2026-04-15 20:43 | 51.58751 | 0.24051 | 22077 ft | 397 kts | 310° |
| 2026-04-15 20:44 | 51.60750 | 0.20990 | 22077 ft | 397 kts | 310° |
| 2026-04-15 20:44 | 51.62749 | 0.17922 | 22068 ft | 397 kts | 310° |
| 2026-04-15 20:44 | 51.64561 | 0.14624 | 22075 ft | 391 kts | 302° |
| 2026-04-15 20:44 | 51.66168 | 0.11096 | 22075 ft | 390 kts | 300° |
| 2026-04-15 20:45 | 51.67698 | 0.07496 | 22070 ft | 389 kts | 298° |
| 2026-04-15 20:45 | 51.69180 | 0.03852 | 22060 ft | 388 kts | 298° |
| 2026-04-15 20:45 | 51.70640 | 0.00186 | 22061 ft | 388 kts | 297° |
| 2026-04-15 20:45 | 51.72091 | -0.03487 | 21988 ft | 388 kts | 297° |
| 2026-04-15 20:46 | 51.73541 | -0.07156 | 21986 ft | 389 kts | 297° |
| 2026-04-15 20:46 | 51.74986 | -0.10780 | 21964 ft | 389 kts | 298° |
| 2026-04-15 20:46 | 51.76518 | -0.14448 | 21969 ft | 390 kts | 299° |
| 2026-04-15 20:46 | 51.78048 | -0.17995 | 21969 ft | 390 kts | 300° |
| 2026-04-15 20:47 | 51.79633 | -0.21622 | 21972 ft | 390 kts | 300° |
| 2026-04-15 20:47 | 51.81181 | -0.25151 | 22066 ft | 390 kts | 300° |
| 2026-04-15 20:47 | 51.82748 | -0.28732 | 22047 ft | 390 kts | 299° |
| 2026-04-15 20:47 | 51.84333 | -0.32373 | 22047 ft | 391 kts | 299° |
| 2026-04-15 20:48 | 51.85875 | -0.35929 | 22048 ft | 390 kts | 299° |
| 2026-04-15 20:48 | 51.87430 | -0.39528 | 22049 ft | 390 kts | 299° |
| 2026-04-15 20:48 | 51.88985 | -0.43137 | 22046 ft | 390 kts | 299° |
| 2026-04-15 20:48 | 51.90533 | -0.46737 | 22047 ft | 390 kts | 299° |
| 2026-04-15 20:49 | 51.92086 | -0.50356 | 22050 ft | 390 kts | 299° |
| 2026-04-15 20:49 | 51.93636 | -0.53970 | 22046 ft | 391 kts | 299° |
| 2026-04-15 20:49 | 51.95183 | -0.57585 | 22044 ft | 390 kts | 299° |
| 2026-04-15 20:49 | 51.96732 | -0.61208 | 22040 ft | 390 kts | 299° |
| 2026-04-15 20:50 | 51.98276 | -0.64822 | 22036 ft | 390 kts | 299° |
| 2026-04-15 20:50 | 51.99822 | -0.68447 | 22034 ft | 390 kts | 299° |
| 2026-04-15 20:50 | 52.01362 | -0.72065 | 22028 ft | 390 kts | 299° |
| 2026-04-15 20:50 | 52.02904 | -0.75691 | 22027 ft | 390 kts | 299° |
| 2026-04-15 20:51 | 52.04447 | -0.79325 | 22038 ft | 390 kts | 298° |
| 2026-04-15 20:51 | 52.05986 | -0.82953 | 22017 ft | 390 kts | 298° |
| 2026-04-15 20:51 | 52.07527 | -0.86594 | 22016 ft | 391 kts | 298° |
| 2026-04-15 20:51 | 52.09064 | -0.90229 | 22007 ft | 391 kts | 298° |
| 2026-04-15 20:52 | 52.10604 | -0.93877 | 22003 ft | 391 kts | 298° |
| 2026-04-15 20:52 | 52.12120 | -0.97472 | 22001 ft | 391 kts | 298° |
| 2026-04-15 20:52 | 52.13654 | -1.01115 | 22006 ft | 390 kts | 298° |
| 2026-04-15 20:52 | 52.15185 | -1.04754 | 21999 ft | 389 kts | 298° |
| 2026-04-15 20:53 | 52.16712 | -1.08389 | 21995 ft | 389 kts | 298° |
| 2026-04-15 20:53 | 52.18122 | -1.12119 | 21998 ft | 386 kts | 294° |
| 2026-04-15 20:53 | 52.19436 | -1.15928 | 21993 ft | 385 kts | 293° |
| 2026-04-15 20:53 | 52.20711 | -1.19765 | 21993 ft | 385 kts | 292° |
| 2026-04-15 20:54 | 52.21964 | -1.23621 | 21992 ft | 384 kts | 292° |
| 2026-04-15 20:54 | 52.23203 | -1.27479 | 21992 ft | 384 kts | 292° |
| 2026-04-15 20:54 | 52.24439 | -1.31343 | 21994 ft | 384 kts | 292° |
| 2026-04-15 20:54 | 52.25674 | -1.35208 | 21993 ft | 384 kts | 292° |
| 2026-04-15 20:55 | 52.26910 | -1.39074 | 21994 ft | 384 kts | 292° |
| 2026-04-15 20:55 | 52.28148 | -1.42941 | 22009 ft | 384 kts | 291° |
| 2026-04-15 20:55 | 52.29385 | -1.46806 | 21994 ft | 384 kts | 291° |
| 2026-04-15 20:55 | 52.30621 | -1.50674 | 21995 ft | 383 kts | 291° |
| 2026-04-15 20:56 | 52.31851 | -1.54525 | 21995 ft | 382 kts | 291° |
| 2026-04-15 20:56 | 52.33081 | -1.58383 | 21993 ft | 382 kts | 291° |
| 2026-04-15 20:56 | 52.34314 | -1.62225 | 21990 ft | 383 kts | 293° |
| 2026-04-15 20:56 | 52.35793 | -1.65818 | 21995 ft | 390 kts | 303° |
| 2026-04-15 20:57 | 52.37665 | -1.69074 | 21998 ft | 395 kts | 309° |
| 2026-04-15 20:57 | 52.39710 | -1.72188 | 21995 ft | 397 kts | 311° |
| 2026-04-15 20:57 | 52.41775 | -1.75114 | 21994 ft | 399 kts | 313° |
| 2026-04-15 20:57 | 52.43904 | -1.78024 | 21990 ft | 399 kts | 313° |
| 2026-04-15 20:58 | 52.46046 | -1.80922 | 21992 ft | 399 kts | 313° |
| 2026-04-15 20:58 | 52.48188 | -1.83826 | 21996 ft | 399 kts | 313° |
| 2026-04-15 20:58 | 52.50321 | -1.86738 | 21995 ft | 399 kts | 313° |
| 2026-04-15 20:58 | 52.52453 | -1.89671 | 21991 ft | 399 kts | 313° |
| 2026-04-15 20:59 | 52.54571 | -1.92602 | 21982 ft | 399 kts | 312° |
| 2026-04-15 20:59 | 52.56687 | -1.95546 | 21977 ft | 399 kts | 312° |
| 2026-04-15 20:59 | 52.58801 | -1.98493 | 21976 ft | 399 kts | 312° |
| 2026-04-15 20:59 | 52.60911 | -2.01441 | 21980 ft | 398 kts | 312° |
| 2026-04-15 21:00 | 52.63018 | -2.04386 | 21970 ft | 396 kts | 312° |
| 2026-04-15 21:00 | 52.65113 | -2.07320 | 21971 ft | 396 kts | 312° |
| 2026-04-15 21:00 | 52.67213 | -2.10265 | 21960 ft | 396 kts | 312° |
| 2026-04-15 21:00 | 52.69306 | -2.13204 | 21961 ft | 396 kts | 312° |
| 2026-04-15 21:01 | 52.71402 | -2.16150 | 21963 ft | 396 kts | 312° |
| 2026-04-15 21:01 | 52.73495 | -2.19095 | 21962 ft | 396 kts | 312° |
| 2026-04-15 21:01 | 52.75590 | -2.22046 | 21960 ft | 396 kts | 311° |
| 2026-04-15 21:01 | 52.77683 | -2.24999 | 21941 ft | 396 kts | 311° |
| 2026-04-15 21:02 | 52.79777 | -2.27959 | 21942 ft | 396 kts | 311° |
| 2026-04-15 21:02 | 52.81872 | -2.30921 | 21942 ft | 396 kts | 311° |
| 2026-04-15 21:02 | 52.83961 | -2.33880 | 21937 ft | 396 kts | 311° |
| 2026-04-15 21:02 | 52.86053 | -2.36846 | 21938 ft | 396 kts | 311° |
| 2026-04-15 21:03 | 52.88143 | -2.39812 | 21938 ft | 396 kts | 311° |
| 2026-04-15 21:03 | 52.90231 | -2.42781 | 21934 ft | 396 kts | 311° |
| 2026-04-15 21:03 | 52.92317 | -2.45751 | 21933 ft | 395 kts | 311° |
| 2026-04-15 21:03 | 52.94405 | -2.48726 | 21932 ft | 395 kts | 311° |
| 2026-04-15 21:04 | 52.96490 | -2.51702 | 21931 ft | 395 kts | 311° |
| 2026-04-15 21:04 | 52.98544 | -2.54637 | 22013 ft | 394 kts | 310° |
| 2026-04-15 21:04 | 53.00613 | -2.57595 | 21935 ft | 392 kts | 310° |
| 2026-04-15 21:04 | 53.02675 | -2.60549 | 21930 ft | 391 kts | 310° |
| 2026-04-15 21:05 | 53.04730 | -2.63498 | 21930 ft | 391 kts | 310° |
| 2026-04-15 21:05 | 53.06788 | -2.66455 | 21913 ft | 391 kts | 310° |
| 2026-04-15 21:05 | 53.08841 | -2.69410 | 21913 ft | 390 kts | 310° |
| 2026-04-15 21:05 | 53.10896 | -2.72372 | 21909 ft | 391 kts | 310° |
| 2026-04-15 21:06 | 53.12948 | -2.75333 | 21909 ft | 390 kts | 310° |
| 2026-04-15 21:06 | 53.14999 | -2.78297 | 21905 ft | 390 kts | 310° |
| 2026-04-15 21:06 | 53.17078 | -2.81303 | 21910 ft | 390 kts | 310° |
| 2026-04-15 21:06 | 53.19128 | -2.84272 | 21913 ft | 390 kts | 310° |
| 2026-04-15 21:07 | 53.21151 | -2.87205 | 21911 ft | 390 kts | 310° |
| 2026-04-15 21:07 | 53.23197 | -2.90175 | 21920 ft | 390 kts | 309° |
| 2026-04-15 21:07 | 53.25239 | -2.93143 | 21910 ft | 389 kts | 309° |
| 2026-04-15 21:07 | 53.27282 | -2.96117 | 21911 ft | 389 kts | 309° |
| 2026-04-15 21:08 | 53.29320 | -2.99088 | 21910 ft | 389 kts | 309° |
| 2026-04-15 21:08 | 53.31363 | -3.02071 | 21910 ft | 389 kts | 309° |
| 2026-04-15 21:08 | 53.33399 | -3.05047 | 21908 ft | 389 kts | 309° |
| 2026-04-15 21:08 | 53.35435 | -3.08027 | 21906 ft | 389 kts | 309° |
| 2026-04-15 21:09 | 53.37469 | -3.11009 | 21904 ft | 388 kts | 309° |